Hovedside
METAR-TAF:

METAR-TAF

Lufthavner :

Örebro, Sverige

breddegrad: 59-14N, lengdegrad: 015-03E, høyde over havet: 57 m

Gjeldene værobservasjon

Denne rapporten ble laget for 21 minutter siden, klokken 22:20 UTC
Vind 6 kt fra Nord
Temperatur 14°C
Luftfuktighet 77%
Trykk 1014 hPa
Sikt 10 km eller mer
ingen skyer under 1500 m og ingen bygeskyer

METAR: ESOE 242220Z 01006KT CAVOK 14/10 Q1014

Tid: 00:41 (22:41 UTC)

Varsel

Denne rapporten ble laget for 2 timer og 11 minutter siden, klokken 20:30 UTC
Varsel gyldig fra 24. klokken 21 UTC til 25. klokken 06 UTC
Vind 5 kt fra Nordøst
Sikt 10 km eller mer
ingen skyer under 1500 m og ingen bygeskyer

TAF: ESOE 242030Z 2421/2506 04005KT CAVOK

Værobservasjoner og værvarsel for over 4000 flyplasser (METAR- og TAF-rapporter).

Tilgjengelige stasjoner er representert av de røde og gule prikkene på kartet.

Hold musepekeren over prikken for å se navnet på stasjonen.

Klikk så for å se værobservasjoner og -varsler.

For å forandre kartet kan du klikke på den grønne knappen med svart kryss for å zoome inn, på den grønne knappen med strek for å zoome ut, eller på de grønne pilene for å se tilstøtende kart.


METAR-TAF: